Terminal Aerodrome Forecast
Issued by NWS

Home | Current Version | Previous Version | Graphics & Text | Print | Product List | Glossary On
Versions: 1 2 3 4 5 6 7 8 9 10 11 12 13 14 15 16 17 18
000
FTUS43 KICT 231247 AAA
TAFRSL
TAF AMD
KRSL 231247Z 2313/2412 01016G23KT P6SM VCTS SCT035 BKN090CB
      TEMPO 2314/2316 6SM -TSRA BKN035CB
     FM231600 01018G26KT P6SM SCT120
     FM240000 36010KT P6SM SKC
     FM240300 34005KT P6SM SKC=

USA.gov is the U.S. government's official web portal to all federal, state and local government web resources and services.